sensor_id;sensor_type;location;lat;lon;timestamp;temperature;humidity
34873;DHT22;21084;51.098;14.506;2022-09-12T00:00:13;14.30;99.90
34873;DHT22;21084;51.098;14.506;2022-09-12T00:02:42;14.30;99.90
34873;DHT22;21084;51.098;14.506;2022-09-12T00:05:10;14.30;99.90
34873;DHT22;21084;51.098;14.506;2022-09-12T00:07:38;14.40;99.90
34873;DHT22;21084;51.098;14.506;2022-09-12T00:10:06;14.40;99.90
34873;DHT22;21084;51.098;14.506;2022-09-12T00:12:35;14.40;99.90
34873;DHT22;21084;51.098;14.506;2022-09-12T00:15:03;14.40;99.90
34873;DHT22;21084;51.098;14.506;2022-09-12T00:17:34;14.40;99.90
34873;DHT22;21084;51.098;14.506;2022-09-12T00:20:03;14.40;99.90
34873;DHT22;21084;51.098;14.506;2022-09-12T00:22:31;14.40;99.90
34873;DHT22;21084;51.098;14.506;2022-09-12T00:24:59;14.40;99.90
34873;DHT22;21084;51.098;14.506;2022-09-12T00:27:27;14.40;99.90
34873;DHT22;21084;51.098;14.506;2022-09-12T00:29:56;14.40;99.90
34873;DHT22;21084;51.098;14.506;2022-09-12T00:32:24;14.40;99.90
34873;DHT22;21084;51.098;14.506;2022-09-12T00:34:54;14.40;99.90
34873;DHT22;21084;51.098;14.506;2022-09-12T00:37:22;14.40;99.90
34873;DHT22;21084;51.098;14.506;2022-09-12T00:39:50;14.40;99.90
34873;DHT22;21084;51.098;14.506;2022-09-12T00:42:18;14.40;99.90
34873;DHT22;21084;51.098;14.506;2022-09-12T00:44:51;14.40;99.90
34873;DHT22;21084;51.098;14.506;2022-09-12T00:47:22;14.40;99.90
34873;DHT22;21084;51.098;14.506;2022-09-12T00:49:57;14.50;99.90
34873;DHT22;21084;51.098;14.506;2022-09-12T00:52:29;14.40;99.90
34873;DHT22;21084;51.098;14.506;2022-09-12T00:55:04;14.40;99.90
34873;DHT22;21084;51.098;14.506;2022-09-12T00:57:40;14.40;99.90
34873;DHT22;21084;51.098;14.506;2022-09-12T01:00:11;14.40;99.90
34873;DHT22;21084;51.098;14.506;2022-09-12T01:02:49;14.50;99.90
34873;DHT22;21084;51.098;14.506;2022-09-12T01:05:20;14.40;99.90
34873;DHT22;21084;51.098;14.506;2022-09-12T01:07:49;14.40;99.90
34873;DHT22;21084;51.098;14.506;2022-09-12T01:10:19;14.30;99.90
34873;DHT22;21084;51.098;14.506;2022-09-12T01:12:47;14.40;99.90
34873;DHT22;21084;51.098;14.506;2022-09-12T01:15:15;14.40;99.90
34873;DHT22;21084;51.098;14.506;2022-09-12T01:17:56;14.30;99.90
34873;DHT22;21084;51.098;14.506;2022-09-12T01:20:59;14.40;99.90
34873;DHT22;21084;51.098;14.506;2022-09-12T01:27:32;14.30;99.90
34873;DHT22;21084;51.098;14.506;2022-09-12T01:30:28;14.30;99.90
34873;DHT22;21084;51.098;14.506;2022-09-12T01:38:59;14.30;99.90
34873;DHT22;21084;51.098;14.506;2022-09-12T01:41:31;14.30;99.90
34873;DHT22;21084;51.098;14.506;2022-09-12T01:44:07;14.30;99.90
34873;DHT22;21084;51.098;14.506;2022-09-12T01:46:42;14.30;99.90
34873;DHT22;21084;51.098;14.506;2022-09-12T01:49:16;14.20;99.90
34873;DHT22;21084;51.098;14.506;2022-09-12T01:51:54;14.20;99.90
34873;DHT22;21084;51.098;14.506;2022-09-12T01:54:26;14.20;99.90
34873;DHT22;21084;51.098;14.506;2022-09-12T01:56:59;14.20;99.90
34873;DHT22;21084;51.098;14.506;2022-09-12T01:59:31;14.20;99.90
34873;DHT22;21084;51.098;14.506;2022-09-12T02:02:03;14.20;99.90
34873;DHT22;21084;51.098;14.506;2022-09-12T02:04:35;14.20;99.90
34873;DHT22;21084;51.098;14.506;2022-09-12T02:07:11;14.20;99.90
34873;DHT22;21084;51.098;14.506;2022-09-12T02:09:45;14.20;99.90
34873;DHT22;21084;51.098;14.506;2022-09-12T02:12:15;14.20;99.90
34873;DHT22;21084;51.098;14.506;2022-09-12T02:14:48;14.30;99.90
34873;DHT22;21084;51.098;14.506;2022-09-12T02:17:22;14.30;99.90
34873;DHT22;21084;51.098;14.506;2022-09-12T02:19:54;14.30;99.90
34873;DHT22;21084;51.098;14.506;2022-09-12T02:22:26;14.20;99.90
34873;DHT22;21084;51.098;14.506;2022-09-12T02:24:56;14.20;99.90
34873;DHT22;21084;51.098;14.506;2022-09-12T02:27:31;14.20;99.90
34873;DHT22;21084;51.098;14.506;2022-09-12T02:30:00;14.20;99.90
34873;DHT22;21084;51.098;14.506;2022-09-12T02:32:34;14.30;99.90
34873;DHT22;21084;51.098;14.506;2022-09-12T02:35:07;14.20;99.90
34873;DHT22;21084;51.098;14.506;2022-09-12T02:37:46;14.20;99.90
34873;DHT22;21084;51.098;14.506;2022-09-12T02:40:17;14.20;99.90
34873;DHT22;21084;51.098;14.506;2022-09-12T02:42:45;14.10;99.90
34873;DHT22;21084;51.098;14.506;2022-09-12T02:45:14;14.10;99.90
34873;DHT22;21084;51.098;14.506;2022-09-12T02:47:47;14.10;99.90
34873;DHT22;21084;51.098;14.506;2022-09-12T02:50:17;14.00;99.90
34873;DHT22;21084;51.098;14.506;2022-09-12T02:52:45;14.00;99.90
34873;DHT22;21084;51.098;14.506;2022-09-12T02:55:14;14.00;99.90
34873;DHT22;21084;51.098;14.506;2022-09-12T02:57:43;14.00;99.90
34873;DHT22;21084;51.098;14.506;2022-09-12T03:00:12;14.00;99.90
34873;DHT22;21084;51.098;14.506;2022-09-12T03:03:10;14.10;99.90
34873;DHT22;21084;51.098;14.506;2022-09-12T03:05:45;14.00;99.90
34873;DHT22;21084;51.098;14.506;2022-09-12T03:08:40;14.10;99.90
34873;DHT22;21084;51.098;14.506;2022-09-12T03:11:22;14.00;99.90
34873;DHT22;21084;51.098;14.506;2022-09-12T03:13:59;14.00;99.90
34873;DHT22;21084;51.098;14.506;2022-09-12T03:16:36;13.90;99.90
34873;DHT22;21084;51.098;14.506;2022-09-12T03:19:17;13.90;99.90
34873;DHT22;21084;51.098;14.506;2022-09-12T03:21:57;13.90;99.90
34873;DHT22;21084;51.098;14.506;2022-09-12T03:24:30;13.80;99.90
34873;DHT22;21084;51.098;14.506;2022-09-12T03:27:04;13.80;99.90
34873;DHT22;21084;51.098;14.506;2022-09-12T03:29:35;13.70;99.90
34873;DHT22;21084;51.098;14.506;2022-09-12T03:32:04;13.60;99.90
34873;DHT22;21084;51.098;14.506;2022-09-12T03:34:34;13.50;99.90
34873;DHT22;21084;51.098;14.506;2022-09-12T03:37:02;13.50;99.90
34873;DHT22;21084;51.098;14.506;2022-09-12T03:39:31;13.40;99.90
34873;DHT22;21084;51.098;14.506;2022-09-12T03:41:59;13.30;99.90
34873;DHT22;21084;51.098;14.506;2022-09-12T03:44:27;13.30;99.90
34873;DHT22;21084;51.098;14.506;2022-09-12T03:46:55;13.30;99.90
34873;DHT22;21084;51.098;14.506;2022-09-12T03:49:23;13.30;99.90
34873;DHT22;21084;51.098;14.506;2022-09-12T03:51:52;13.20;99.90
34873;DHT22;21084;51.098;14.506;2022-09-12T03:54:20;13.10;99.90
34873;DHT22;21084;51.098;14.506;2022-09-12T03:56:49;13.10;99.90
34873;DHT22;21084;51.098;14.506;2022-09-12T03:59:17;13.10;99.90
34873;DHT22;21084;51.098;14.506;2022-09-12T04:01:46;13.10;99.90
34873;DHT22;21084;51.098;14.506;2022-09-12T04:04:14;13.10;99.90
34873;DHT22;21084;51.098;14.506;2022-09-12T04:06:42;13.00;99.90
34873;DHT22;21084;51.098;14.506;2022-09-12T04:09:11;13.00;99.90
34873;DHT22;21084;51.098;14.506;2022-09-12T04:11:39;13.00;99.90
34873;DHT22;21084;51.098;14.506;2022-09-12T04:14:07;13.00;99.90
34873;DHT22;21084;51.098;14.506;2022-09-12T04:16:35;13.00;99.90
34873;DHT22;21084;51.098;14.506;2022-09-12T04:19:03;13.00;99.90
34873;DHT22;21084;51.098;14.506;2022-09-12T04:21:31;12.90;99.90
34873;DHT22;21084;51.098;14.506;2022-09-12T04:23:59;12.90;99.90
34873;DHT22;21084;51.098;14.506;2022-09-12T04:26:29;12.90;99.90
34873;DHT22;21084;51.098;14.506;2022-09-12T04:28:57;12.90;99.90
34873;DHT22;21084;51.098;14.506;2022-09-12T04:31:25;12.90;99.90
34873;DHT22;21084;51.098;14.506;2022-09-12T04:33:54;13.00;99.90
34873;DHT22;21084;51.098;14.506;2022-09-12T04:36:23;13.00;99.90
34873;DHT22;21084;51.098;14.506;2022-09-12T04:38:52;13.00;99.90
34873;DHT22;21084;51.098;14.506;2022-09-12T04:41:22;13.10;99.90
34873;DHT22;21084;51.098;14.506;2022-09-12T04:43:54;13.10;99.90
34873;DHT22;21084;51.098;14.506;2022-09-12T04:46:24;13.20;99.90
34873;DHT22;21084;51.098;14.506;2022-09-12T04:48:52;13.20;99.90
34873;DHT22;21084;51.098;14.506;2022-09-12T04:51:25;13.30;99.90
34873;DHT22;21084;51.098;14.506;2022-09-12T04:53:55;13.40;99.90
34873;DHT22;21084;51.098;14.506;2022-09-12T04:56:25;13.50;99.90
34873;DHT22;21084;51.098;14.506;2022-09-12T04:58:56;13.50;99.90
34873;DHT22;21084;51.098;14.506;2022-09-12T05:01:25;13.60;99.90
34873;DHT22;21084;51.098;14.506;2022-09-12T05:03:53;13.60;99.90
34873;DHT22;21084;51.098;14.506;2022-09-12T05:06:24;13.70;99.90
34873;DHT22;21084;51.098;14.506;2022-09-12T05:08:53;13.80;99.90
34873;DHT22;21084;51.098;14.506;2022-09-12T05:11:23;13.80;99.90
34873;DHT22;21084;51.098;14.506;2022-09-12T05:14:13;13.80;99.90
34873;DHT22;21084;51.098;14.506;2022-09-12T05:16:40;13.90;99.90
34873;DHT22;21084;51.098;14.506;2022-09-12T05:19:14;13.90;99.90
34873;DHT22;21084;51.098;14.506;2022-09-12T05:21:42;14.00;99.90
34873;DHT22;21084;51.098;14.506;2022-09-12T05:24:10;14.10;99.90
34873;DHT22;21084;51.098;14.506;2022-09-12T05:26:38;14.00;99.90
34873;DHT22;21084;51.098;14.506;2022-09-12T05:29:06;14.00;99.90
34873;DHT22;21084;51.098;14.506;2022-09-12T05:31:36;14.10;99.90
34873;DHT22;21084;51.098;14.506;2022-09-12T05:34:04;14.00;99.90
34873;DHT22;21084;51.098;14.506;2022-09-12T05:36:34;14.00;99.90
34873;DHT22;21084;51.098;14.506;2022-09-12T05:39:04;14.00;99.90
34873;DHT22;21084;51.098;14.506;2022-09-12T05:41:33;14.10;99.90
34873;DHT22;21084;51.098;14.506;2022-09-12T05:44:04;14.30;99.90
34873;DHT22;21084;51.098;14.506;2022-09-12T05:46:37;14.40;99.90
34873;DHT22;21084;51.098;14.506;2022-09-12T05:49:07;14.30;99.90
34873;DHT22;21084;51.098;14.506;2022-09-12T05:51:38;14.40;99.90
34873;DHT22;21084;51.098;14.506;2022-09-12T05:54:08;14.50;99.90
34873;DHT22;21084;51.098;14.506;2022-09-12T05:56:37;14.50;99.90
34873;DHT22;21084;51.098;14.506;2022-09-12T05:59:10;14.60;99.90
34873;DHT22;21084;51.098;14.506;2022-09-12T06:01:42;14.70;99.90
34873;DHT22;21084;51.098;14.506;2022-09-12T06:04:11;14.60;99.90
34873;DHT22;21084;51.098;14.506;2022-09-12T06:06:41;14.70;99.90
34873;DHT22;21084;51.098;14.506;2022-09-12T06:09:12;14.70;99.90
34873;DHT22;21084;51.098;14.506;2022-09-12T06:11:40;14.80;99.90
34873;DHT22;21084;51.098;14.506;2022-09-12T06:14:10;14.90;99.90
34873;DHT22;21084;51.098;14.506;2022-09-12T06:16:40;14.90;99.90
34873;DHT22;21084;51.098;14.506;2022-09-12T06:19:13;14.80;99.90
34873;DHT22;21084;51.098;14.506;2022-09-12T06:21:41;14.80;99.90
34873;DHT22;21084;51.098;14.506;2022-09-12T06:24:10;14.90;99.90
34873;DHT22;21084;51.098;14.506;2022-09-12T06:26:38;15.00;99.90
34873;DHT22;21084;51.098;14.506;2022-09-12T06:29:06;15.00;99.90
34873;DHT22;21084;51.098;14.506;2022-09-12T06:31:36;15.00;99.90
34873;DHT22;21084;51.098;14.506;2022-09-12T06:34:07;15.00;99.90
34873;DHT22;21084;51.098;14.506;2022-09-12T06:36:37;15.20;99.90
34873;DHT22;21084;51.098;14.506;2022-09-12T06:39:09;15.50;99.90
34873;DHT22;21084;51.098;14.506;2022-09-12T06:41:37;15.90;99.90
34873;DHT22;21084;51.098;14.506;2022-09-12T06:44:11;16.00;99.90
34873;DHT22;21084;51.098;14.506;2022-09-12T06:46:40;16.20;99.90
34873;DHT22;21084;51.098;14.506;2022-09-12T06:49:10;16.00;99.90
34873;DHT22;21084;51.098;14.506;2022-09-12T06:51:38;15.90;99.90
34873;DHT22;21084;51.098;14.506;2022-09-12T06:54:08;15.90;99.90
34873;DHT22;21084;51.098;14.506;2022-09-12T06:56:38;15.80;99.90
34873;DHT22;21084;51.098;14.506;2022-09-12T06:59:06;15.80;99.90
34873;DHT22;21084;51.098;14.506;2022-09-12T07:01:34;15.60;99.90
34873;DHT22;21084;51.098;14.506;2022-09-12T07:04:03;15.50;99.90
34873;DHT22;21084;51.098;14.506;2022-09-12T07:06:37;15.40;99.90
34873;DHT22;21084;51.098;14.506;2022-09-12T07:09:07;15.40;99.90
34873;DHT22;21084;51.098;14.506;2022-09-12T07:11:37;15.40;99.90
34873;DHT22;21084;51.098;14.506;2022-09-12T07:14:06;15.30;99.90
34873;DHT22;21084;51.098;14.506;2022-09-12T07:16:35;15.10;99.90
34873;DHT22;21084;51.098;14.506;2022-09-12T07:19:05;15.20;99.90
34873;DHT22;21084;51.098;14.506;2022-09-12T07:21:35;15.30;99.90
34873;DHT22;21084;51.098;14.506;2022-09-12T07:24:06;15.40;99.90
34873;DHT22;21084;51.098;14.506;2022-09-12T07:26:36;15.40;99.90
34873;DHT22;21084;51.098;14.506;2022-09-12T07:29:04;15.50;99.90
34873;DHT22;21084;51.098;14.506;2022-09-12T07:31:52;15.60;99.90
34873;DHT22;21084;51.098;14.506;2022-09-12T07:34:20;16.00;99.90
34873;DHT22;21084;51.098;14.506;2022-09-12T07:36:49;16.10;99.90
34873;DHT22;21084;51.098;14.506;2022-09-12T07:39:17;16.40;99.90
34873;DHT22;21084;51.098;14.506;2022-09-12T07:41:45;16.20;99.90
34873;DHT22;21084;51.098;14.506;2022-09-12T07:44:13;16.30;99.90
34873;DHT22;21084;51.098;14.506;2022-09-12T07:46:41;16.40;99.90
34873;DHT22;21084;51.098;14.506;2022-09-12T07:49:11;16.80;99.90
34873;DHT22;21084;51.098;14.506;2022-09-12T07:51:39;17.10;99.90
34873;DHT22;21084;51.098;14.506;2022-09-12T07:54:08;17.60;99.90
34873;DHT22;21084;51.098;14.506;2022-09-12T07:56:36;18.30;99.90
34873;DHT22;21084;51.098;14.506;2022-09-12T07:59:05;18.20;99.90
34873;DHT22;21084;51.098;14.506;2022-09-12T08:01:34;17.80;99.90
34873;DHT22;21084;51.098;14.506;2022-09-12T08:04:02;17.60;99.90
34873;DHT22;21084;51.098;14.506;2022-09-12T08:06:30;17.50;99.90
34873;DHT22;21084;51.098;14.506;2022-09-12T08:09:02;17.40;99.90
34873;DHT22;21084;51.098;14.506;2022-09-12T08:11:32;17.20;99.90
34873;DHT22;21084;51.098;14.506;2022-09-12T08:14:00;17.20;99.90
34873;DHT22;21084;51.098;14.506;2022-09-12T08:16:32;17.40;99.90
34873;DHT22;21084;51.098;14.506;2022-09-12T08:19:01;17.70;99.90
34873;DHT22;21084;51.098;14.506;2022-09-12T08:21:31;18.00;99.90
34873;DHT22;21084;51.098;14.506;2022-09-12T08:24:01;17.90;99.90
34873;DHT22;21084;51.098;14.506;2022-09-12T08:26:32;17.60;99.90
34873;DHT22;21084;51.098;14.506;2022-09-12T08:29:00;17.30;99.90
34873;DHT22;21084;51.098;14.506;2022-09-12T08:31:30;17.20;99.90
34873;DHT22;21084;51.098;14.506;2022-09-12T08:34:03;17.50;99.90
34873;DHT22;21084;51.098;14.506;2022-09-12T08:36:32;17.10;99.90
34873;DHT22;21084;51.098;14.506;2022-09-12T08:39:01;17.00;99.90
34873;DHT22;21084;51.098;14.506;2022-09-12T08:41:34;17.20;99.90
34873;DHT22;21084;51.098;14.506;2022-09-12T08:44:22;17.20;99.90
34873;DHT22;21084;51.098;14.506;2022-09-12T08:47:09;17.20;99.90
34873;DHT22;21084;51.098;14.506;2022-09-12T08:49:44;17.10;99.90
34873;DHT22;21084;51.098;14.506;2022-09-12T08:52:18;16.60;99.90
34873;DHT22;21084;51.098;14.506;2022-09-12T08:54:47;16.80;99.90
34873;DHT22;21084;51.098;14.506;2022-09-12T08:57:17;16.50;99.90
34873;DHT22;21084;51.098;14.506;2022-09-12T08:59:45;16.90;99.90
34873;DHT22;21084;51.098;14.506;2022-09-12T09:02:32;16.90;99.90
34873;DHT22;21084;51.098;14.506;2022-09-12T09:05:10;16.90;99.90
34873;DHT22;21084;51.098;14.506;2022-09-12T09:07:56;17.10;99.90
34873;DHT22;21084;51.098;14.506;2022-09-12T09:10:31;17.80;99.90
34873;DHT22;21084;51.098;14.506;2022-09-12T09:13:13;18.20;99.90
34873;DHT22;21084;51.098;14.506;2022-09-12T09:16:09;18.50;99.90
34873;DHT22;21084;51.098;14.506;2022-09-12T09:18:39;19.00;99.90
34873;DHT22;21084;51.098;14.506;2022-09-12T09:21:16;19.30;99.90
34873;DHT22;21084;51.098;14.506;2022-09-12T09:23:49;19.00;99.90
34873;DHT22;21084;51.098;14.506;2022-09-12T09:26:26;18.90;99.90
34873;DHT22;21084;51.098;14.506;2022-09-12T09:28:58;19.20;99.90
34873;DHT22;21084;51.098;14.506;2022-09-12T09:31:37;20.00;99.90
34873;DHT22;21084;51.098;14.506;2022-09-12T09:34:12;21.50;99.90
34873;DHT22;21084;51.098;14.506;2022-09-12T09:36:48;21.60;99.90
34873;DHT22;21084;51.098;14.506;2022-09-12T09:39:40;21.30;99.90
34873;DHT22;21084;51.098;14.506;2022-09-12T09:42:20;20.40;99.90
34873;DHT22;21084;51.098;14.506;2022-09-12T09:44:55;20.30;99.90
34873;DHT22;21084;51.098;14.506;2022-09-12T09:47:26;20.40;99.90
34873;DHT22;21084;51.098;14.506;2022-09-12T09:49:54;20.50;99.90
34873;DHT22;21084;51.098;14.506;2022-09-12T09:52:26;20.00;99.90
34873;DHT22;21084;51.098;14.506;2022-09-12T09:54:57;20.30;99.90
34873;DHT22;21084;51.098;14.506;2022-09-12T09:57:40;19.40;99.90
34873;DHT22;21084;51.098;14.506;2022-09-12T10:00:22;17.90;99.90
34873;DHT22;21084;51.098;14.506;2022-09-12T10:03:03;17.70;99.90
34873;DHT22;21084;51.098;14.506;2022-09-12T10:05:44;17.90;99.90
34873;DHT22;21084;51.098;14.506;2022-09-12T10:08:20;18.00;99.90
34873;DHT22;21084;51.098;14.506;2022-09-12T10:10:57;17.70;99.90
34873;DHT22;21084;51.098;14.506;2022-09-12T10:13:35;17.80;99.90
34873;DHT22;21084;51.098;14.506;2022-09-12T10:16:16;17.70;99.90
34873;DHT22;21084;51.098;14.506;2022-09-12T10:18:46;18.00;99.90
34873;DHT22;21084;51.098;14.506;2022-09-12T10:21:22;18.70;99.90
34873;DHT22;21084;51.098;14.506;2022-09-12T10:24:01;18.80;99.90
34873;DHT22;21084;51.098;14.506;2022-09-12T10:26:33;18.80;99.90
34873;DHT22;21084;51.098;14.506;2022-09-12T10:29:08;19.30;99.90
34873;DHT22;21084;51.098;14.506;2022-09-12T10:31:45;20.00;99.90
34873;DHT22;21084;51.098;14.506;2022-09-12T10:34:27;20.60;99.90
34873;DHT22;21084;51.098;14.506;2022-09-12T10:37:03;20.60;99.90
34873;DHT22;21084;51.098;14.506;2022-09-12T10:39:31;20.50;99.90
34873;DHT22;21084;51.098;14.506;2022-09-12T10:42:02;20.30;99.90
34873;DHT22;21084;51.098;14.506;2022-09-12T10:44:32;19.90;99.90
34873;DHT22;21084;51.098;14.506;2022-09-12T10:47:20;19.80;99.90
34873;DHT22;21084;51.098;14.506;2022-09-12T10:49:49;18.60;99.90
34873;DHT22;21084;51.098;14.506;2022-09-12T10:52:21;18.30;99.90
34873;DHT22;21084;51.098;14.506;2022-09-12T10:54:50;18.40;99.90
34873;DHT22;21084;51.098;14.506;2022-09-12T10:57:41;17.80;99.90
34873;DHT22;21084;51.098;14.506;2022-09-12T11:00:14;18.30;99.90
34873;DHT22;21084;51.098;14.506;2022-09-12T11:03:08;18.40;99.90
34873;DHT22;21084;51.098;14.506;2022-09-12T11:05:50;19.20;99.90
34873;DHT22;21084;51.098;14.506;2022-09-12T11:08:30;19.40;99.90
34873;DHT22;21084;51.098;14.506;2022-09-12T11:11:07;18.90;99.90
34873;DHT22;21084;51.098;14.506;2022-09-12T11:13:54;19.00;99.90
34873;DHT22;21084;51.098;14.506;2022-09-12T11:16:30;19.00;99.90
34873;DHT22;21084;51.098;14.506;2022-09-12T11:19:23;19.20;99.90
34873;DHT22;21084;51.098;14.506;2022-09-12T11:22:07;19.00;99.90
34873;DHT22;21084;51.098;14.506;2022-09-12T11:24:53;19.30;99.90
34873;DHT22;21084;51.098;14.506;2022-09-12T11:27:33;19.20;99.90
34873;DHT22;21084;51.098;14.506;2022-09-12T11:30:09;20.00;99.90
34873;DHT22;21084;51.098;14.506;2022-09-12T11:33:06;20.00;99.90
34873;DHT22;21084;51.098;14.506;2022-09-12T11:35:41;20.20;99.90
34873;DHT22;21084;51.098;14.506;2022-09-12T11:41:22;18.00;99.90
34873;DHT22;21084;51.098;14.506;2022-09-12T11:43:56;18.30;99.90
34873;DHT22;21084;51.098;14.506;2022-09-12T11:46:31;19.00;99.90
34873;DHT22;21084;51.098;14.506;2022-09-12T11:49:06;19.40;99.90
34873;DHT22;21084;51.098;14.506;2022-09-12T11:51:43;19.10;99.90
34873;DHT22;21084;51.098;14.506;2022-09-12T11:54:18;19.30;99.90
34873;DHT22;21084;51.098;14.506;2022-09-12T11:56:52;19.90;99.90
34873;DHT22;21084;51.098;14.506;2022-09-12T11:59:32;20.00;99.90
34873;DHT22;21084;51.098;14.506;2022-09-12T12:02:02;19.80;99.90
34873;DHT22;21084;51.098;14.506;2022-09-12T12:04:36;20.30;99.90
34873;DHT22;21084;51.098;14.506;2022-09-12T12:07:09;20.50;99.90
34873;DHT22;21084;51.098;14.506;2022-09-12T12:09:45;20.70;99.90
34873;DHT22;21084;51.098;14.506;2022-09-12T12:12:18;21.10;99.90
34873;DHT22;21084;51.098;14.506;2022-09-12T12:14:49;21.10;99.90
34873;DHT22;21084;51.098;14.506;2022-09-12T12:17:21;21.70;99.90
34873;DHT22;21084;51.098;14.506;2022-09-12T12:19:57;21.50;99.90
34873;DHT22;21084;51.098;14.506;2022-09-12T12:22:32;22.50;99.90
34873;DHT22;21084;51.098;14.506;2022-09-12T12:25:13;22.90;99.90
34873;DHT22;21084;51.098;14.506;2022-09-12T12:27:56;23.20;99.90
34873;DHT22;21084;51.098;14.506;2022-09-12T12:30:59;22.90;99.90
34873;DHT22;21084;51.098;14.506;2022-09-12T12:33:52;23.00;99.90
34873;DHT22;21084;51.098;14.506;2022-09-12T12:36:40;21.10;99.90
34873;DHT22;21084;51.098;14.506;2022-09-12T12:48:44;20.10;99.90
34873;DHT22;21084;51.098;14.506;2022-09-12T12:54:33;20.10;99.90
34873;DHT22;21084;51.098;14.506;2022-09-12T12:57:22;20.50;99.90
34873;DHT22;21084;51.098;14.506;2022-09-12T12:59:53;20.80;99.90
34873;DHT22;21084;51.098;14.506;2022-09-12T13:02:27;20.70;99.90
34873;DHT22;21084;51.098;14.506;2022-09-12T13:04:59;20.90;99.90
34873;DHT22;21084;51.098;14.506;2022-09-12T13:07:33;20.90;99.90
34873;DHT22;21084;51.098;14.506;2022-09-12T13:10:03;21.40;99.90
34873;DHT22;21084;51.098;14.506;2022-09-12T13:12:34;21.90;99.90
34873;DHT22;21084;51.098;14.506;2022-09-12T13:15:27;22.80;99.90
34873;DHT22;21084;51.098;14.506;2022-09-12T13:17:58;23.30;99.90
34873;DHT22;21084;51.098;14.506;2022-09-12T13:20:30;23.40;99.90
34873;DHT22;21084;51.098;14.506;2022-09-12T13:22:59;23.80;99.90
34873;DHT22;21084;51.098;14.506;2022-09-12T13:25:29;24.40;99.90
34873;DHT22;21084;51.098;14.506;2022-09-12T13:28:05;25.00;99.90
34873;DHT22;21084;51.098;14.506;2022-09-12T13:30:35;24.20;99.90
34873;DHT22;21084;51.098;14.506;2022-09-12T13:33:10;24.00;99.90
34873;DHT22;21084;51.098;14.506;2022-09-12T13:35:52;24.50;99.90
34873;DHT22;21084;51.098;14.506;2022-09-12T13:38:31;24.30;99.90
34873;DHT22;21084;51.098;14.506;2022-09-12T13:41:18;25.10;99.90
34873;DHT22;21084;51.098;14.506;2022-09-12T13:43:49;24.30;99.90
34873;DHT22;21084;51.098;14.506;2022-09-12T13:46:21;24.50;99.90
34873;DHT22;21084;51.098;14.506;2022-09-12T13:48:53;24.50;99.90
34873;DHT22;21084;51.098;14.506;2022-09-12T13:51:23;24.60;99.90
34873;DHT22;21084;51.098;14.506;2022-09-12T13:53:55;24.30;99.90
34873;DHT22;21084;51.098;14.506;2022-09-12T13:56:24;23.20;99.90
34873;DHT22;21084;51.098;14.506;2022-09-12T13:58:53;21.40;99.90
34873;DHT22;21084;51.098;14.506;2022-09-12T14:01:22;20.90;99.90
34873;DHT22;21084;51.098;14.506;2022-09-12T14:03:54;20.40;99.90
34873;DHT22;21084;51.098;14.506;2022-09-12T14:06:45;20.00;99.90
34873;DHT22;21084;51.098;14.506;2022-09-12T14:09:19;19.40;99.90
34873;DHT22;21084;51.098;14.506;2022-09-12T14:11:51;20.20;99.90
34873;DHT22;21084;51.098;14.506;2022-09-12T14:14:30;19.90;99.90
34873;DHT22;21084;51.098;14.506;2022-09-12T14:16:58;20.60;99.90
34873;DHT22;21084;51.098;14.506;2022-09-12T14:19:27;20.80;99.90
34873;DHT22;21084;51.098;14.506;2022-09-12T14:21:56;20.80;99.90
34873;DHT22;21084;51.098;14.506;2022-09-12T14:24:24;21.50;99.90
34873;DHT22;21084;51.098;14.506;2022-09-12T14:26:54;21.40;99.90
34873;DHT22;21084;51.098;14.506;2022-09-12T14:29:23;22.20;99.90
34873;DHT22;21084;51.098;14.506;2022-09-12T14:32:02;22.40;99.90
34873;DHT22;21084;51.098;14.506;2022-09-12T14:34:32;22.00;99.90
34873;DHT22;21084;51.098;14.506;2022-09-12T14:37:05;21.90;99.90
34873;DHT22;21084;51.098;14.506;2022-09-12T14:39:37;21.20;99.90
34873;DHT22;21084;51.098;14.506;2022-09-12T14:42:12;22.40;99.90
34873;DHT22;21084;51.098;14.506;2022-09-12T14:44:43;22.90;99.90
34873;DHT22;21084;51.098;14.506;2022-09-12T14:47:20;23.40;99.90
34873;DHT22;21084;51.098;14.506;2022-09-12T14:49:51;23.50;99.90
34873;DHT22;21084;51.098;14.506;2022-09-12T14:52:25;24.10;99.90
34873;DHT22;21084;51.098;14.506;2022-09-12T14:54:56;23.40;99.90
34873;DHT22;21084;51.098;14.506;2022-09-12T14:57:33;23.30;99.90
34873;DHT22;21084;51.098;14.506;2022-09-12T15:00:23;22.80;99.90
34873;DHT22;21084;51.098;14.506;2022-09-12T15:02:52;22.70;99.90
34873;DHT22;21084;51.098;14.506;2022-09-12T15:05:24;22.60;99.90
34873;DHT22;21084;51.098;14.506;2022-09-12T15:07:55;22.90;99.90
34873;DHT22;21084;51.098;14.506;2022-09-12T15:10:27;22.30;99.90
34873;DHT22;21084;51.098;14.506;2022-09-12T15:13:13;22.40;99.90
34873;DHT22;21084;51.098;14.506;2022-09-12T15:15:43;22.10;99.90
34873;DHT22;21084;51.098;14.506;2022-09-12T15:18:11;22.30;99.90
34873;DHT22;21084;51.098;14.506;2022-09-12T15:20:43;21.50;99.90
34873;DHT22;21084;51.098;14.506;2022-09-12T15:23:31;20.90;99.90
34873;DHT22;21084;51.098;14.506;2022-09-12T15:26:01;20.80;99.90
34873;DHT22;21084;51.098;14.506;2022-09-12T15:28:30;20.30;99.90
34873;DHT22;21084;51.098;14.506;2022-09-12T15:31:03;20.10;99.90
34873;DHT22;21084;51.098;14.506;2022-09-12T15:33:32;19.90;99.90
34873;DHT22;21084;51.098;14.506;2022-09-12T15:36:02;19.50;99.90
34873;DHT22;21084;51.098;14.506;2022-09-12T15:38:30;19.40;99.90
34873;DHT22;21084;51.098;14.506;2022-09-12T15:40:58;19.20;99.90
34873;DHT22;21084;51.098;14.506;2022-09-12T15:43:26;19.60;99.90
34873;DHT22;21084;51.098;14.506;2022-09-12T15:45:54;19.60;99.90
34873;DHT22;21084;51.098;14.506;2022-09-12T15:48:22;19.40;99.90
34873;DHT22;21084;51.098;14.506;2022-09-12T15:50:50;19.60;99.90
34873;DHT22;21084;51.098;14.506;2022-09-12T15:53:19;19.80;99.90
34873;DHT22;21084;51.098;14.506;2022-09-12T15:55:47;19.90;99.90
34873;DHT22;21084;51.098;14.506;2022-09-12T15:58:15;19.90;99.90
34873;DHT22;21084;51.098;14.506;2022-09-12T16:00:43;19.80;99.90
34873;DHT22;21084;51.098;14.506;2022-09-12T16:03:21;19.80;99.90
34873;DHT22;21084;51.098;14.506;2022-09-12T16:05:49;19.70;99.90
34873;DHT22;21084;51.098;14.506;2022-09-12T16:08:23;19.50;99.90
34873;DHT22;21084;51.098;14.506;2022-09-12T16:10:53;19.60;99.90
34873;DHT22;21084;51.098;14.506;2022-09-12T16:13:22;19.60;99.90
34873;DHT22;21084;51.098;14.506;2022-09-12T16:15:51;19.50;99.90